AXM1624 RKSI-WBKK
Flight info
| Callsign | AXM1624 |
|---|---|
| Flight time | 4h 55m |
| Altitude | 34000 |
| Route | BOPTA2Y BOPTA Z51 BEDES Y711 MUGUS/N0447F360 Y742 SALMI Q11 POTIB M646 SANRO B591 LUBAN DCT TOKON M646 OSANU DCT VETAG VETAG1A |
| Aircraft | A320/M-SDE3FGHIRWY/LB1 |
Departure
| Time | 2026-04-26 12:14 |
|---|---|
| Airport | Incheon International Airport (RKSI) |
Arrival
| Time | 2026-04-26 17:09 |
|---|---|
| Airport | Kota Kinabalu International Airport (WBKK) |
| Time | Latitude | Longitude | Altitude | Speed | Heading |
|---|---|---|---|---|---|
| 2026-04-26 11:57 | 37.45659 | 126.44756 | 32 ft | 0 kts | 324° |
| 2026-04-26 12:00 | 37.45659 | 126.44757 | 32 ft | 0 kts | 324° |
| 2026-04-26 12:02 | 37.45650 | 126.44765 | 32 ft | 4 kts | 326° |
| 2026-04-26 12:03 | 37.45627 | 126.44783 | 31 ft | 4 kts | 332° |
| 2026-04-26 12:03 | 37.45603 | 126.44796 | 31 ft | 4 kts | 348° |
| 2026-04-26 12:03 | 37.45579 | 126.44796 | 32 ft | 4 kts | 44° |
| 2026-04-26 12:03 | 37.45572 | 126.44787 | 32 ft | 0 kts | 54° |
| 2026-04-26 12:05 | 37.45573 | 126.44788 | 32 ft | 0 kts | 54° |
| 2026-04-26 12:06 | 37.45578 | 126.44796 | 32 ft | 2 kts | 54° |
| 2026-04-26 12:06 | 37.45590 | 126.44820 | 32 ft | 4 kts | 55° |
| 2026-04-26 12:06 | 37.45602 | 126.44840 | 32 ft | 5 kts | 56° |
| 2026-04-26 12:06 | 37.45628 | 126.44887 | 32 ft | 8 kts | 54° |
| 2026-04-26 12:07 | 37.45665 | 126.44953 | 32 ft | 10 kts | 54° |
| 2026-04-26 12:07 | 37.45709 | 126.45031 | 32 ft | 11 kts | 54° |
| 2026-04-26 12:07 | 37.45739 | 126.45119 | 32 ft | 11 kts | 98° |
| 2026-04-26 12:07 | 37.45680 | 126.45144 | 31 ft | 11 kts | 213° |
| 2026-04-26 12:08 | 37.45629 | 126.45061 | 31 ft | 13 kts | 236° |
| 2026-04-26 12:08 | 37.45575 | 126.44964 | 32 ft | 14 kts | 234° |
| 2026-04-26 12:08 | 37.45515 | 126.44856 | 32 ft | 16 kts | 238° |
| 2026-04-26 12:08 | 37.45448 | 126.44738 | 31 ft | 17 kts | 234° |
| 2026-04-26 12:09 | 37.45376 | 126.44611 | 32 ft | 18 kts | 235° |
| 2026-04-26 12:09 | 37.45298 | 126.44476 | 32 ft | 20 kts | 231° |
| 2026-04-26 12:09 | 37.45217 | 126.44332 | 32 ft | 21 kts | 235° |
| 2026-04-26 12:09 | 37.45138 | 126.44190 | 33 ft | 17 kts | 235° |
| 2026-04-26 12:10 | 37.45071 | 126.44069 | 33 ft | 13 kts | 232° |
| 2026-04-26 12:10 | 37.45021 | 126.43980 | 33 ft | 13 kts | 236° |
| 2026-04-26 12:10 | 37.44949 | 126.43911 | 33 ft | 14 kts | 185° |
| 2026-04-26 12:10 | 37.44869 | 126.43972 | 33 ft | 14 kts | 145° |
| 2026-04-26 12:11 | 37.44793 | 126.44038 | 33 ft | 12 kts | 146° |
| 2026-04-26 12:11 | 37.44728 | 126.44095 | 33 ft | 11 kts | 147° |
| 2026-04-26 12:11 | 37.44644 | 126.44174 | 33 ft | 19 kts | 146° |
| 2026-04-26 12:11 | 37.44564 | 126.44241 | 33 ft | 12 kts | 146° |
| 2026-04-26 12:12 | 37.44503 | 126.44294 | 32 ft | 10 kts | 145° |
| 2026-04-26 12:12 | 37.44450 | 126.44318 | 32 ft | 7 kts | 191° |
| 2026-04-26 12:12 | 37.44414 | 126.44277 | 32 ft | 9 kts | 234° |
| 2026-04-26 12:12 | 37.44387 | 126.44224 | 32 ft | 11 kts | 235° |
| 2026-04-26 12:13 | 37.44393 | 126.44130 | 31 ft | 7 kts | 321° |
| 2026-04-26 12:13 | 37.44399 | 126.44125 | 32 ft | 1 kts | 324° |
| 2026-04-26 12:13 | 37.44582 | 126.43962 | 31 ft | 68 kts | 324° |
| 2026-04-26 12:13 | 37.45136 | 126.43468 | 33 ft | 125 kts | 324° |
| 2026-04-26 12:14 | 37.45977 | 126.42719 | 35 ft | 169 kts | 325° |
| 2026-04-26 12:14 | 37.46978 | 126.41846 | 509 ft | 177 kts | 324° |
| 2026-04-26 12:14 | 37.47903 | 126.40818 | 1168 ft | 178 kts | 310° |
| 2026-04-26 12:14 | 37.48718 | 126.39627 | 1822 ft | 180 kts | 308° |
| 2026-04-26 12:15 | 37.49498 | 126.38406 | 2444 ft | 178 kts | 306° |
| 2026-04-26 12:15 | 37.50192 | 126.37126 | 3017 ft | 176 kts | 291° |
| 2026-04-26 12:15 | 37.50460 | 126.35613 | 3412 ft | 186 kts | 271° |
| 2026-04-26 12:15 | 37.50474 | 126.33887 | 3577 ft | 208 kts | 270° |
| 2026-04-26 12:16 | 37.50506 | 126.31963 | 3787 ft | 232 kts | 271° |
| 2026-04-26 12:16 | 37.50550 | 126.29832 | 4157 ft | 252 kts | 271° |
| 2026-04-26 12:16 | 37.50599 | 126.27594 | 4859 ft | 259 kts | 271° |
| 2026-04-26 12:16 | 37.50650 | 126.25304 | 5581 ft | 264 kts | 271° |
| 2026-04-26 12:17 | 37.50702 | 126.22974 | 6314 ft | 268 kts | 271° |
| 2026-04-26 12:17 | 37.50500 | 126.20632 | 6986 ft | 272 kts | 252° |
| 2026-04-26 12:17 | 37.49599 | 126.18529 | 7707 ft | 276 kts | 230° |
| 2026-04-26 12:17 | 37.48101 | 126.16999 | 8409 ft | 282 kts | 208° |
| 2026-04-26 12:18 | 37.46263 | 126.16081 | 9108 ft | 287 kts | 202° |
| 2026-04-26 12:18 | 37.44366 | 126.15234 | 9815 ft | 292 kts | 197° |
| 2026-04-26 12:18 | 37.42331 | 126.14959 | 10432 ft | 299 kts | 177° |
| 2026-04-26 12:18 | 37.40240 | 126.15557 | 10671 ft | 322 kts | 157° |
| 2026-04-26 12:19 | 37.38330 | 126.17185 | 10824 ft | 345 kts | 134° |
| 2026-04-26 12:19 | 37.36734 | 126.19502 | 11275 ft | 354 kts | 131° |
| 2026-04-26 12:19 | 37.34887 | 126.21553 | 11849 ft | 358 kts | 149° |
| 2026-04-26 12:19 | 37.32691 | 126.23056 | 12475 ft | 361 kts | 153° |
| 2026-04-26 12:20 | 37.30459 | 126.24525 | 13099 ft | 364 kts | 153° |
| 2026-04-26 12:20 | 37.28202 | 126.26001 | 13703 ft | 368 kts | 153° |
| 2026-04-26 12:20 | 37.25921 | 126.27490 | 14254 ft | 371 kts | 153° |
| 2026-04-26 12:20 | 37.23617 | 126.28994 | 14797 ft | 374 kts | 153° |
| 2026-04-26 12:21 | 37.21304 | 126.30506 | 15348 ft | 377 kts | 153° |
| 2026-04-26 12:21 | 37.18971 | 126.32037 | 15892 ft | 380 kts | 153° |
| 2026-04-26 12:21 | 37.16622 | 126.33579 | 16434 ft | 383 kts | 154° |
| 2026-04-26 12:21 | 37.14249 | 126.35132 | 16953 ft | 386 kts | 154° |
| 2026-04-26 12:22 | 37.11860 | 126.36694 | 17493 ft | 389 kts | 154° |
| 2026-04-26 12:22 | 37.09452 | 126.38265 | 18013 ft | 392 kts | 154° |
| 2026-04-26 12:22 | 37.07026 | 126.39845 | 18484 ft | 395 kts | 154° |
| 2026-04-26 12:22 | 37.04580 | 126.41438 | 18937 ft | 397 kts | 154° |
| 2026-04-26 12:23 | 37.02124 | 126.43039 | 19385 ft | 399 kts | 154° |
| 2026-04-26 12:23 | 36.99685 | 126.44628 | 19830 ft | 402 kts | 155° |
| 2026-04-26 12:23 | 36.97195 | 126.46248 | 20274 ft | 404 kts | 155° |
| 2026-04-26 12:23 | 36.94698 | 126.47877 | 20715 ft | 406 kts | 155° |
| 2026-04-26 12:24 | 36.92191 | 126.49513 | 21136 ft | 408 kts | 155° |
| 2026-04-26 12:24 | 36.89667 | 126.51161 | 21587 ft | 410 kts | 156° |
| 2026-04-26 12:24 | 36.87124 | 126.52817 | 22012 ft | 412 kts | 156° |
| 2026-04-26 12:25 | 36.82006 | 126.56127 | 22843 ft | 416 kts | 156° |
| 2026-04-26 12:25 | 36.79427 | 126.57788 | 23238 ft | 419 kts | 157° |
| 2026-04-26 12:25 | 36.76830 | 126.59460 | 23628 ft | 421 kts | 157° |
| 2026-04-26 12:25 | 36.74214 | 126.61100 | 23959 ft | 421 kts | 161° |
| 2026-04-26 12:26 | 36.71466 | 126.62314 | 24266 ft | 418 kts | 169° |
| 2026-04-26 12:26 | 36.68654 | 126.63250 | 24582 ft | 420 kts | 169° |
| 2026-04-26 12:26 | 36.65825 | 126.64191 | 24908 ft | 421 kts | 169° |
| 2026-04-26 12:26 | 36.62990 | 126.65141 | 25222 ft | 423 kts | 169° |
| 2026-04-26 12:27 | 36.60138 | 126.66103 | 25527 ft | 425 kts | 169° |
| 2026-04-26 12:27 | 36.57274 | 126.67070 | 25831 ft | 427 kts | 169° |
| 2026-04-26 12:27 | 36.54400 | 126.68032 | 26130 ft | 429 kts | 169° |
| 2026-04-26 12:27 | 36.51510 | 126.69001 | 26427 ft | 431 kts | 169° |
| 2026-04-26 12:28 | 36.48611 | 126.69974 | 26720 ft | 433 kts | 169° |
| 2026-04-26 12:28 | 36.45695 | 126.70951 | 27013 ft | 435 kts | 169° |
| 2026-04-26 12:28 | 36.42765 | 126.71927 | 27299 ft | 437 kts | 169° |
| 2026-04-26 12:28 | 36.39824 | 126.72905 | 27600 ft | 438 kts | 169° |
| 2026-04-26 12:29 | 36.36871 | 126.73890 | 27880 ft | 440 kts | 169° |
| 2026-04-26 12:29 | 36.33908 | 126.74889 | 28166 ft | 442 kts | 169° |
| 2026-04-26 12:29 | 36.27945 | 126.76901 | 28714 ft | 446 kts | 169° |
| 2026-04-26 12:30 | 36.24947 | 126.77912 | 28960 ft | 448 kts | 169° |
| 2026-04-26 12:30 | 36.21934 | 126.78926 | 29216 ft | 450 kts | 169° |
| 2026-04-26 12:30 | 36.18906 | 126.79944 | 29473 ft | 451 kts | 169° |
| 2026-04-26 12:31 | 36.12743 | 126.80920 | 29946 ft | 445 kts | 186° |
| 2026-04-26 12:31 | 36.09664 | 126.80635 | 30154 ft | 444 kts | 189° |
| 2026-04-26 12:31 | 36.06586 | 126.80288 | 30401 ft | 444 kts | 189° |
| 2026-04-26 12:31 | 36.03511 | 126.79948 | 30702 ft | 443 kts | 189° |
| 2026-04-26 12:32 | 36.00440 | 126.79617 | 30988 ft | 443 kts | 189° |
| 2026-04-26 12:32 | 35.97372 | 126.79292 | 31272 ft | 442 kts | 189° |
| 2026-04-26 12:32 | 35.91243 | 126.78640 | 31834 ft | 441 kts | 190° |
| 2026-04-26 12:33 | 35.88186 | 126.78310 | 32116 ft | 440 kts | 190° |
| 2026-04-26 12:33 | 35.85140 | 126.77978 | 32397 ft | 439 kts | 190° |
| 2026-04-26 12:33 | 35.82101 | 126.77646 | 32675 ft | 439 kts | 190° |
| 2026-04-26 12:33 | 35.79058 | 126.77312 | 32949 ft | 438 kts | 191° |
| 2026-04-26 12:34 | 35.76024 | 126.76978 | 33224 ft | 437 kts | 191° |
| 2026-04-26 12:34 | 35.72996 | 126.76647 | 33491 ft | 437 kts | 191° |
| 2026-04-26 12:34 | 35.69968 | 126.76320 | 33766 ft | 436 kts | 191° |
| 2026-04-26 12:34 | 35.66945 | 126.75996 | 33943 ft | 436 kts | 191° |
| 2026-04-26 12:35 | 35.63938 | 126.75677 | 33978 ft | 432 kts | 191° |
| 2026-04-26 12:35 | 35.57969 | 126.75039 | 33979 ft | 430 kts | 191° |
| 2026-04-26 12:36 | 35.52013 | 126.74394 | 33972 ft | 430 kts | 191° |
| 2026-04-26 12:36 | 35.46056 | 126.73748 | 33982 ft | 430 kts | 191° |
| 2026-04-26 12:37 | 35.40099 | 126.73116 | 33977 ft | 430 kts | 191° |
| 2026-04-26 12:37 | 35.34133 | 126.72487 | 33961 ft | 430 kts | 191° |
| 2026-04-26 12:38 | 35.28218 | 126.71851 | 33963 ft | 430 kts | 191° |
| 2026-04-26 12:38 | 35.22261 | 126.71211 | 33967 ft | 430 kts | 191° |
| 2026-04-26 12:39 | 35.16300 | 126.70576 | 33961 ft | 430 kts | 191° |
| 2026-04-26 12:39 | 35.10339 | 126.69944 | 33962 ft | 430 kts | 191° |
| 2026-04-26 12:40 | 35.04374 | 126.69309 | 33965 ft | 430 kts | 191° |
| 2026-04-26 12:40 | 34.98407 | 126.68677 | 33962 ft | 430 kts | 191° |
| 2026-04-26 12:41 | 34.92442 | 126.68049 | 33967 ft | 431 kts | 191° |
| 2026-04-26 12:41 | 34.86471 | 126.67418 | 33966 ft | 431 kts | 191° |
| 2026-04-26 12:42 | 34.80492 | 126.66772 | 33963 ft | 431 kts | 191° |
| 2026-04-26 12:42 | 34.74517 | 126.66140 | 33961 ft | 431 kts | 191° |
| 2026-04-26 12:43 | 34.68533 | 126.65524 | 33950 ft | 431 kts | 191° |
| 2026-04-26 12:43 | 34.62558 | 126.64897 | 33955 ft | 431 kts | 191° |
| 2026-04-26 12:44 | 34.56608 | 126.64271 | 33954 ft | 432 kts | 191° |
| 2026-04-26 12:44 | 34.50615 | 126.63641 | 33961 ft | 432 kts | 191° |
| 2026-04-26 12:45 | 34.44624 | 126.63016 | 33958 ft | 432 kts | 191° |
| 2026-04-26 12:45 | 34.38627 | 126.62388 | 33958 ft | 433 kts | 191° |
| 2026-04-26 12:46 | 34.32620 | 126.61764 | 33957 ft | 433 kts | 191° |
| 2026-04-26 12:46 | 34.26605 | 126.61139 | 33959 ft | 434 kts | 191° |
| 2026-04-26 12:47 | 34.20584 | 126.60518 | 33959 ft | 434 kts | 191° |
| 2026-04-26 12:47 | 34.14561 | 126.59891 | 33960 ft | 435 kts | 191° |
| 2026-04-26 12:48 | 34.08530 | 126.59259 | 33967 ft | 435 kts | 191° |
| 2026-04-26 12:48 | 34.02490 | 126.58625 | 33972 ft | 436 kts | 191° |
| 2026-04-26 12:49 | 33.96442 | 126.57994 | 33975 ft | 436 kts | 191° |
| 2026-04-26 12:49 | 33.90396 | 126.57365 | 33974 ft | 436 kts | 191° |
| 2026-04-26 12:50 | 33.84369 | 126.56583 | 33975 ft | 431 kts | 198° |
| 2026-04-26 12:50 | 33.79677 | 126.54799 | 33975 ft | 424 kts | 206° |
| 2026-04-26 12:51 | 33.74127 | 126.52370 | 33972 ft | 425 kts | 206° |
| 2026-04-26 12:51 | 33.68554 | 126.49960 | 33974 ft | 426 kts | 206° |
| 2026-04-26 12:52 | 33.62974 | 126.47555 | 33979 ft | 426 kts | 206° |
| 2026-04-26 12:52 | 33.57391 | 126.45142 | 33975 ft | 427 kts | 206° |
| 2026-04-26 12:53 | 33.51803 | 126.42726 | 33979 ft | 427 kts | 206° |
| 2026-04-26 12:53 | 33.46213 | 126.40309 | 33980 ft | 428 kts | 206° |
| 2026-04-26 12:54 | 33.40607 | 126.37905 | 33980 ft | 428 kts | 206° |
| 2026-04-26 12:54 | 33.34995 | 126.35495 | 33978 ft | 428 kts | 206° |
| 2026-04-26 12:55 | 33.29382 | 126.33085 | 33976 ft | 429 kts | 206° |
| 2026-04-26 12:55 | 33.23762 | 126.30674 | 33983 ft | 429 kts | 206° |
| 2026-04-26 12:56 | 33.18131 | 126.28266 | 33982 ft | 430 kts | 206° |
| 2026-04-26 12:56 | 33.12497 | 126.25863 | 33981 ft | 430 kts | 206° |
| 2026-04-26 12:57 | 33.06855 | 126.23453 | 33978 ft | 431 kts | 206° |
| 2026-04-26 12:57 | 33.01248 | 126.21061 | 33981 ft | 431 kts | 206° |
| 2026-04-26 12:58 | 32.92774 | 126.17426 | 33984 ft | 431 kts | 207° |
| 2026-04-26 12:58 | 32.87129 | 126.15000 | 33987 ft | 432 kts | 207° |
| 2026-04-26 12:59 | 32.81472 | 126.12576 | 33988 ft | 432 kts | 207° |
| 2026-04-26 12:59 | 32.75805 | 126.10158 | 33988 ft | 433 kts | 207° |
| 2026-04-26 13:00 | 32.70143 | 126.07741 | 33988 ft | 433 kts | 207° |
| 2026-04-26 13:00 | 32.64465 | 126.05318 | 33991 ft | 433 kts | 207° |
| 2026-04-26 13:01 | 32.58791 | 126.02900 | 33988 ft | 434 kts | 207° |
| 2026-04-26 13:01 | 32.53111 | 126.00477 | 33991 ft | 434 kts | 207° |
| 2026-04-26 13:02 | 32.47423 | 125.98055 | 33993 ft | 434 kts | 207° |
| 2026-04-26 13:02 | 32.41728 | 125.95634 | 33990 ft | 435 kts | 207° |
| 2026-04-26 13:03 | 32.36028 | 125.93224 | 33995 ft | 435 kts | 207° |
| 2026-04-26 13:03 | 32.30325 | 125.90817 | 33996 ft | 435 kts | 207° |
| 2026-04-26 13:04 | 32.24619 | 125.88415 | 33997 ft | 435 kts | 207° |
| 2026-04-26 13:04 | 32.18910 | 125.86010 | 33999 ft | 436 kts | 207° |
| 2026-04-26 13:05 | 32.13196 | 125.83605 | 34002 ft | 436 kts | 207° |
| 2026-04-26 13:05 | 32.07484 | 125.81198 | 34000 ft | 436 kts | 207° |
| 2026-04-26 13:06 | 32.01805 | 125.78815 | 33998 ft | 436 kts | 207° |
| 2026-04-26 13:06 | 31.96086 | 125.76414 | 34001 ft | 436 kts | 207° |
| 2026-04-26 13:07 | 31.90363 | 125.74008 | 34001 ft | 436 kts | 207° |
| 2026-04-26 13:07 | 31.84643 | 125.71608 | 34002 ft | 437 kts | 207° |
| 2026-04-26 13:08 | 31.78918 | 125.69213 | 34009 ft | 437 kts | 207° |
| 2026-04-26 13:08 | 31.73190 | 125.66816 | 34006 ft | 437 kts | 208° |
| 2026-04-26 13:09 | 31.67461 | 125.64417 | 34009 ft | 437 kts | 208° |
| 2026-04-26 13:09 | 31.61726 | 125.62015 | 34006 ft | 438 kts | 208° |
| 2026-04-26 13:10 | 31.55984 | 125.59616 | 34006 ft | 438 kts | 208° |
| 2026-04-26 13:10 | 31.50238 | 125.57215 | 34006 ft | 439 kts | 208° |
| 2026-04-26 13:11 | 31.44489 | 125.54804 | 34009 ft | 439 kts | 208° |
| 2026-04-26 13:11 | 31.38729 | 125.52392 | 34009 ft | 440 kts | 208° |
| 2026-04-26 13:12 | 31.32961 | 125.49984 | 34011 ft | 440 kts | 208° |
| 2026-04-26 13:12 | 31.27226 | 125.47593 | 34011 ft | 441 kts | 208° |
| 2026-04-26 13:13 | 31.21441 | 125.45187 | 34015 ft | 441 kts | 208° |
| 2026-04-26 13:13 | 31.15649 | 125.42776 | 34012 ft | 442 kts | 208° |
| 2026-04-26 13:14 | 31.09847 | 125.40363 | 34013 ft | 442 kts | 208° |
| 2026-04-26 13:14 | 31.04045 | 125.37952 | 34012 ft | 443 kts | 208° |
| 2026-04-26 13:15 | 30.98239 | 125.35543 | 34011 ft | 443 kts | 208° |
| 2026-04-26 13:15 | 30.93398 | 125.33536 | 34012 ft | 444 kts | 208° |
| 2026-04-26 13:16 | 30.86589 | 125.30723 | 34011 ft | 445 kts | 208° |
| 2026-04-26 13:16 | 30.80757 | 125.28315 | 34014 ft | 445 kts | 208° |
| 2026-04-26 13:17 | 30.71988 | 125.24697 | 34014 ft | 446 kts | 208° |
| 2026-04-26 13:18 | 30.63237 | 125.21099 | 34018 ft | 447 kts | 208° |
| 2026-04-26 13:19 | 30.54436 | 125.17484 | 34017 ft | 447 kts | 208° |
| 2026-04-26 13:19 | 30.48568 | 125.15066 | 34013 ft | 448 kts | 208° |
| 2026-04-26 13:20 | 30.42684 | 125.12666 | 34015 ft | 448 kts | 208° |
| 2026-04-26 13:20 | 30.36800 | 125.10269 | 34025 ft | 449 kts | 208° |
| 2026-04-26 13:21 | 30.30917 | 125.07859 | 34021 ft | 449 kts | 208° |
| 2026-04-26 13:21 | 30.25023 | 125.05447 | 34017 ft | 449 kts | 208° |
| 2026-04-26 13:22 | 30.19122 | 125.03045 | 34017 ft | 450 kts | 208° |
| 2026-04-26 13:22 | 30.13205 | 125.00642 | 34026 ft | 450 kts | 208° |
| 2026-04-26 13:23 | 30.07290 | 124.98240 | 34022 ft | 451 kts | 208° |
| 2026-04-26 13:23 | 30.01406 | 124.95837 | 34025 ft | 451 kts | 208° |
| 2026-04-26 13:24 | 29.95507 | 124.93393 | 34031 ft | 450 kts | 209° |
| 2026-04-26 13:24 | 29.89635 | 124.90867 | 34028 ft | 450 kts | 210° |
| 2026-04-26 13:25 | 29.83764 | 124.88330 | 34022 ft | 450 kts | 209° |
| 2026-04-26 13:25 | 29.77887 | 124.85818 | 34030 ft | 451 kts | 209° |
| 2026-04-26 13:26 | 29.71996 | 124.83325 | 34025 ft | 451 kts | 209° |
| 2026-04-26 13:26 | 29.66105 | 124.80826 | 34027 ft | 451 kts | 209° |
| 2026-04-26 13:27 | 29.60208 | 124.78320 | 34026 ft | 452 kts | 209° |
| 2026-04-26 13:27 | 29.54316 | 124.75823 | 34026 ft | 452 kts | 209° |
| 2026-04-26 13:28 | 29.48408 | 124.73321 | 34026 ft | 452 kts | 209° |
| 2026-04-26 13:28 | 29.42532 | 124.70833 | 34020 ft | 453 kts | 209° |
| 2026-04-26 13:29 | 29.36600 | 124.68327 | 34023 ft | 453 kts | 209° |
| 2026-04-26 13:29 | 29.30673 | 124.65820 | 34024 ft | 454 kts | 209° |
| 2026-04-26 13:30 | 29.24754 | 124.63317 | 34197 ft | 459 kts | 209° |
| 2026-04-26 13:30 | 29.21752 | 124.62052 | 34385 ft | 460 kts | 209° |
| 2026-04-26 13:30 | 29.18747 | 124.60793 | 34597 ft | 460 kts | 209° |
| 2026-04-26 13:30 | 29.15739 | 124.59536 | 34820 ft | 460 kts | 209° |
| 2026-04-26 13:31 | 29.12734 | 124.58279 | 35039 ft | 459 kts | 209° |
| 2026-04-26 13:31 | 29.09733 | 124.57023 | 35252 ft | 459 kts | 209° |
| 2026-04-26 13:31 | 29.06730 | 124.55765 | 35461 ft | 459 kts | 209° |
| 2026-04-26 13:31 | 29.03737 | 124.54508 | 35663 ft | 458 kts | 209° |
| 2026-04-26 13:32 | 29.00747 | 124.53252 | 35878 ft | 458 kts | 209° |
| 2026-04-26 13:32 | 28.97757 | 124.51997 | 36020 ft | 457 kts | 210° |
| 2026-04-26 13:32 | 28.94904 | 124.50502 | 36055 ft | 446 kts | 219° |
| 2026-04-26 13:33 | 28.89837 | 124.46614 | 36051 ft | 437 kts | 225° |
| 2026-04-26 13:33 | 28.84864 | 124.42608 | 36052 ft | 437 kts | 225° |
| 2026-04-26 13:34 | 28.79888 | 124.38606 | 36053 ft | 438 kts | 225° |
| 2026-04-26 13:34 | 28.74943 | 124.34635 | 36050 ft | 438 kts | 225° |
| 2026-04-26 13:35 | 28.69961 | 124.30646 | 36045 ft | 438 kts | 225° |
| 2026-04-26 13:35 | 28.64975 | 124.26656 | 36039 ft | 438 kts | 225° |
| 2026-04-26 13:36 | 28.59991 | 124.22670 | 36033 ft | 438 kts | 225° |
| 2026-04-26 13:36 | 28.55851 | 124.19363 | 36035 ft | 438 kts | 225° |
| 2026-04-26 13:37 | 28.50859 | 124.15390 | 36038 ft | 438 kts | 225° |
| 2026-04-26 13:37 | 28.45865 | 124.11417 | 36035 ft | 438 kts | 225° |
| 2026-04-26 13:38 | 28.40868 | 124.07442 | 36036 ft | 438 kts | 225° |
| 2026-04-26 13:38 | 28.35878 | 124.03478 | 36041 ft | 438 kts | 225° |
| 2026-04-26 13:39 | 28.30746 | 123.99680 | 36041 ft | 449 kts | 216° |
| 2026-04-26 13:39 | 28.24947 | 123.96847 | 36037 ft | 454 kts | 213° |
| 2026-04-26 13:40 | 28.19155 | 123.94086 | 36034 ft | 454 kts | 213° |
| 2026-04-26 13:40 | 28.13327 | 123.91300 | 36031 ft | 454 kts | 213° |
| 2026-04-26 13:41 | 28.07500 | 123.88516 | 36034 ft | 454 kts | 213° |
| 2026-04-26 13:41 | 28.01682 | 123.85732 | 36033 ft | 454 kts | 213° |
| 2026-04-26 13:42 | 27.95857 | 123.82946 | 36033 ft | 454 kts | 213° |
| 2026-04-26 13:42 | 27.90034 | 123.80181 | 36041 ft | 454 kts | 213° |
| 2026-04-26 13:43 | 27.84216 | 123.77411 | 36040 ft | 453 kts | 213° |
| 2026-04-26 13:43 | 27.78400 | 123.74648 | 36043 ft | 453 kts | 212° |
| 2026-04-26 13:44 | 27.72627 | 123.71908 | 36045 ft | 453 kts | 213° |
| 2026-04-26 13:44 | 27.66825 | 123.69158 | 36045 ft | 452 kts | 212° |
| 2026-04-26 13:45 | 27.61154 | 123.66200 | 36044 ft | 440 kts | 222° |
| 2026-04-26 13:45 | 27.56221 | 123.62268 | 36044 ft | 433 kts | 226° |
| 2026-04-26 13:46 | 27.51334 | 123.58293 | 36043 ft | 433 kts | 226° |
| 2026-04-26 13:46 | 27.46443 | 123.54330 | 36035 ft | 433 kts | 225° |
| 2026-04-26 13:47 | 27.41546 | 123.50379 | 36030 ft | 433 kts | 225° |
| 2026-04-26 13:47 | 27.36657 | 123.46427 | 36038 ft | 432 kts | 225° |
| 2026-04-26 13:48 | 27.31772 | 123.42483 | 36042 ft | 432 kts | 225° |
| 2026-04-26 13:48 | 27.26888 | 123.38548 | 36042 ft | 432 kts | 225° |
| 2026-04-26 13:49 | 27.22001 | 123.34620 | 36043 ft | 431 kts | 225° |
| 2026-04-26 13:49 | 27.17128 | 123.30696 | 36042 ft | 431 kts | 225° |
| 2026-04-26 13:50 | 27.12258 | 123.26777 | 36041 ft | 430 kts | 225° |
| 2026-04-26 13:50 | 27.07394 | 123.22868 | 36040 ft | 430 kts | 225° |
| 2026-04-26 13:51 | 27.02527 | 123.18961 | 36041 ft | 430 kts | 225° |
| 2026-04-26 13:51 | 26.97664 | 123.15065 | 36040 ft | 430 kts | 225° |
| 2026-04-26 13:52 | 26.92827 | 123.11207 | 36039 ft | 430 kts | 225° |
| 2026-04-26 13:52 | 26.87961 | 123.07311 | 36038 ft | 429 kts | 225° |
| 2026-04-26 13:53 | 26.83093 | 123.03428 | 36037 ft | 430 kts | 225° |
| 2026-04-26 13:53 | 26.78188 | 122.99524 | 36035 ft | 429 kts | 225° |
| 2026-04-26 13:54 | 26.73330 | 122.95642 | 36034 ft | 430 kts | 225° |
| 2026-04-26 13:54 | 26.68481 | 122.91796 | 36031 ft | 430 kts | 224° |
| 2026-04-26 13:55 | 26.61951 | 122.86631 | 36026 ft | 430 kts | 224° |
| 2026-04-26 13:56 | 26.53841 | 122.80214 | 36025 ft | 430 kts | 224° |
| 2026-04-26 13:56 | 26.48962 | 122.76355 | 36032 ft | 430 kts | 224° |
| 2026-04-26 13:57 | 26.44085 | 122.72488 | 36033 ft | 430 kts | 224° |
| 2026-04-26 13:57 | 26.39210 | 122.68623 | 36041 ft | 430 kts | 224° |
| 2026-04-26 13:58 | 26.34333 | 122.64768 | 36039 ft | 430 kts | 224° |
| 2026-04-26 13:58 | 26.29452 | 122.60916 | 36034 ft | 430 kts | 224° |
| 2026-04-26 13:59 | 26.24572 | 122.57070 | 36036 ft | 430 kts | 224° |
| 2026-04-26 13:59 | 26.19689 | 122.53223 | 36035 ft | 430 kts | 224° |
| 2026-04-26 14:00 | 26.09910 | 122.45541 | 36030 ft | 430 kts | 224° |
| 2026-04-26 14:01 | 26.05021 | 122.41702 | 36032 ft | 430 kts | 224° |
| 2026-04-26 14:01 | 26.00132 | 122.37873 | 36030 ft | 430 kts | 224° |
| 2026-04-26 14:02 | 25.95273 | 122.34070 | 36034 ft | 430 kts | 224° |
| 2026-04-26 14:02 | 25.90349 | 122.30230 | 36030 ft | 429 kts | 224° |
| 2026-04-26 14:03 | 25.85496 | 122.26446 | 36033 ft | 429 kts | 224° |
| 2026-04-26 14:03 | 25.80613 | 122.22645 | 36048 ft | 428 kts | 224° |
| 2026-04-26 14:04 | 25.75746 | 122.18848 | 36049 ft | 427 kts | 224° |
| 2026-04-26 14:04 | 25.70883 | 122.15063 | 36049 ft | 427 kts | 223° |
| 2026-04-26 14:05 | 25.66028 | 122.11286 | 36044 ft | 426 kts | 223° |
| 2026-04-26 14:05 | 25.60630 | 122.08318 | 36041 ft | 446 kts | 204° |
| 2026-04-26 14:05 | 25.57551 | 122.07651 | 36037 ft | 457 kts | 193° |
| 2026-04-26 14:06 | 25.54356 | 122.07490 | 36034 ft | 461 kts | 189° |
| 2026-04-26 14:06 | 25.47937 | 122.07260 | 36030 ft | 461 kts | 189° |
| 2026-04-26 14:07 | 25.41536 | 122.07008 | 36031 ft | 460 kts | 189° |
| 2026-04-26 14:07 | 25.35132 | 122.06751 | 36034 ft | 460 kts | 189° |
| 2026-04-26 14:08 | 25.28770 | 122.06496 | 36035 ft | 460 kts | 189° |
| 2026-04-26 14:08 | 25.22376 | 122.06238 | 36035 ft | 460 kts | 189° |
| 2026-04-26 14:09 | 25.15987 | 122.05989 | 36036 ft | 459 kts | 189° |
| 2026-04-26 14:09 | 25.09596 | 122.05738 | 36041 ft | 459 kts | 189° |
| 2026-04-26 14:10 | 25.03215 | 122.05499 | 36043 ft | 459 kts | 189° |
| 2026-04-26 14:10 | 24.96842 | 122.05257 | 36042 ft | 458 kts | 189° |
| 2026-04-26 14:11 | 24.87295 | 122.04875 | 36046 ft | 457 kts | 189° |
| 2026-04-26 14:11 | 24.80934 | 122.04632 | 36045 ft | 457 kts | 189° |
| 2026-04-26 14:12 | 24.74586 | 122.04388 | 36049 ft | 456 kts | 189° |
| 2026-04-26 14:12 | 24.68239 | 122.04135 | 36051 ft | 456 kts | 189° |
| 2026-04-26 14:13 | 24.58739 | 122.03765 | 36050 ft | 455 kts | 188° |
| 2026-04-26 14:14 | 24.52409 | 122.03517 | 36051 ft | 455 kts | 188° |
| 2026-04-26 14:14 | 24.46123 | 122.03274 | 36052 ft | 454 kts | 188° |
| 2026-04-26 14:15 | 24.39816 | 122.03033 | 36052 ft | 453 kts | 188° |
| 2026-04-26 14:15 | 24.33615 | 122.02306 | 36052 ft | 442 kts | 201° |
| 2026-04-26 14:16 | 24.27762 | 122.00398 | 36053 ft | 439 kts | 203° |
| 2026-04-26 14:16 | 24.21911 | 121.98485 | 36050 ft | 438 kts | 203° |
| 2026-04-26 14:17 | 24.16060 | 121.96583 | 36048 ft | 438 kts | 203° |
| 2026-04-26 14:17 | 24.10225 | 121.94684 | 36049 ft | 437 kts | 202° |
| 2026-04-26 14:18 | 24.04392 | 121.92788 | 36050 ft | 437 kts | 202° |
| 2026-04-26 14:18 | 23.98563 | 121.90897 | 36047 ft | 436 kts | 202° |
| 2026-04-26 14:19 | 23.92744 | 121.88997 | 36048 ft | 436 kts | 202° |
| 2026-04-26 14:19 | 23.87915 | 121.87427 | 36049 ft | 435 kts | 202° |
| 2026-04-26 14:20 | 23.81131 | 121.85233 | 36047 ft | 435 kts | 202° |
| 2026-04-26 14:20 | 23.76311 | 121.83674 | 36048 ft | 434 kts | 202° |
| 2026-04-26 14:21 | 23.70522 | 121.81797 | 36044 ft | 434 kts | 202° |
| 2026-04-26 14:21 | 23.64737 | 121.79923 | 36048 ft | 433 kts | 202° |
| 2026-04-26 14:22 | 23.58957 | 121.78058 | 36035 ft | 433 kts | 202° |
| 2026-04-26 14:22 | 23.53190 | 121.76188 | 36032 ft | 432 kts | 202° |
| 2026-04-26 14:23 | 23.47422 | 121.74320 | 36037 ft | 432 kts | 202° |
| 2026-04-26 14:23 | 23.41660 | 121.72459 | 36035 ft | 432 kts | 202° |
| 2026-04-26 14:24 | 23.35906 | 121.70601 | 36034 ft | 431 kts | 202° |
| 2026-04-26 14:24 | 23.30152 | 121.68745 | 36033 ft | 431 kts | 202° |
| 2026-04-26 14:25 | 23.24427 | 121.66896 | 36033 ft | 431 kts | 202° |
| 2026-04-26 14:25 | 23.18675 | 121.65045 | 36029 ft | 431 kts | 202° |
| 2026-04-26 14:26 | 23.12920 | 121.63199 | 36024 ft | 431 kts | 202° |
| 2026-04-26 14:26 | 23.07179 | 121.61355 | 36026 ft | 430 kts | 202° |
| 2026-04-26 14:27 | 23.01434 | 121.59514 | 36025 ft | 430 kts | 202° |
| 2026-04-26 14:27 | 22.95694 | 121.57680 | 36029 ft | 430 kts | 202° |
| 2026-04-26 14:28 | 22.89962 | 121.55844 | 36022 ft | 429 kts | 202° |
| 2026-04-26 14:28 | 22.84229 | 121.54010 | 36022 ft | 429 kts | 202° |
| 2026-04-26 14:29 | 22.78503 | 121.52181 | 36020 ft | 429 kts | 202° |
| 2026-04-26 14:29 | 22.72782 | 121.50354 | 36021 ft | 428 kts | 202° |
| 2026-04-26 14:30 | 22.67069 | 121.48507 | 36016 ft | 426 kts | 206° |
| 2026-04-26 14:30 | 22.61640 | 121.46143 | 36016 ft | 423 kts | 208° |
| 2026-04-26 14:31 | 22.56195 | 121.43736 | 36014 ft | 423 kts | 208° |
| 2026-04-26 14:31 | 22.50741 | 121.41338 | 36012 ft | 423 kts | 207° |
| 2026-04-26 14:32 | 22.45288 | 121.38949 | 36013 ft | 423 kts | 207° |
| 2026-04-26 14:32 | 22.39841 | 121.36558 | 36009 ft | 422 kts | 207° |
| 2026-04-26 14:33 | 22.34389 | 121.34169 | 36016 ft | 422 kts | 207° |
| 2026-04-26 14:33 | 22.28947 | 121.31778 | 36018 ft | 422 kts | 207° |
| 2026-04-26 14:34 | 22.23500 | 121.29388 | 36014 ft | 422 kts | 207° |
| 2026-04-26 14:34 | 22.18059 | 121.27009 | 36007 ft | 422 kts | 207° |
| 2026-04-26 14:35 | 22.12655 | 121.24654 | 36022 ft | 422 kts | 207° |
| 2026-04-26 14:35 | 22.07219 | 121.22281 | 36018 ft | 421 kts | 207° |
| 2026-04-26 14:36 | 22.01791 | 121.19908 | 36015 ft | 421 kts | 207° |
| 2026-04-26 14:36 | 21.96357 | 121.17537 | 36015 ft | 421 kts | 207° |
| 2026-04-26 14:37 | 21.90922 | 121.15169 | 36011 ft | 421 kts | 207° |
| 2026-04-26 14:37 | 21.85492 | 121.12806 | 36009 ft | 421 kts | 207° |
| 2026-04-26 14:38 | 21.80065 | 121.10445 | 36006 ft | 421 kts | 207° |
| 2026-04-26 14:38 | 21.74636 | 121.08083 | 36006 ft | 421 kts | 207° |
| 2026-04-26 14:39 | 21.69210 | 121.05730 | 36000 ft | 421 kts | 207° |
| 2026-04-26 14:39 | 21.63780 | 121.03370 | 36001 ft | 421 kts | 207° |
| 2026-04-26 14:40 | 21.58354 | 121.01018 | 35997 ft | 421 kts | 207° |
| 2026-04-26 14:40 | 21.52915 | 120.98666 | 35994 ft | 421 kts | 207° |
| 2026-04-26 14:41 | 21.47486 | 120.96313 | 35989 ft | 421 kts | 207° |
| 2026-04-26 14:41 | 21.42058 | 120.93963 | 35987 ft | 421 kts | 207° |
| 2026-04-26 14:42 | 21.36629 | 120.91616 | 35989 ft | 421 kts | 207° |
| 2026-04-26 14:42 | 21.31199 | 120.89270 | 35989 ft | 421 kts | 207° |
| 2026-04-26 14:43 | 21.25769 | 120.86927 | 35987 ft | 420 kts | 207° |
| 2026-04-26 14:43 | 21.20339 | 120.84589 | 35992 ft | 420 kts | 207° |
| 2026-04-26 14:44 | 21.14914 | 120.82245 | 35988 ft | 420 kts | 207° |
| 2026-04-26 14:44 | 21.09495 | 120.79909 | 35987 ft | 420 kts | 207° |
| 2026-04-26 14:45 | 21.04067 | 120.77581 | 35987 ft | 420 kts | 207° |
| 2026-04-26 14:45 | 20.98465 | 120.75724 | 35985 ft | 429 kts | 193° |
| 2026-04-26 14:46 | 20.92479 | 120.75198 | 35985 ft | 432 kts | 190° |
| 2026-04-26 14:46 | 20.86479 | 120.74716 | 35980 ft | 432 kts | 190° |
| 2026-04-26 14:47 | 20.80491 | 120.74226 | 35980 ft | 432 kts | 191° |
| 2026-04-26 14:47 | 20.74504 | 120.73728 | 35980 ft | 431 kts | 191° |
| 2026-04-26 14:48 | 20.68519 | 120.73231 | 35981 ft | 431 kts | 191° |
| 2026-04-26 14:48 | 20.62540 | 120.72741 | 35979 ft | 431 kts | 191° |
| 2026-04-26 14:49 | 20.56557 | 120.72253 | 35981 ft | 431 kts | 191° |
| 2026-04-26 14:49 | 20.50620 | 120.71761 | 35976 ft | 431 kts | 191° |
| 2026-04-26 14:50 | 20.44646 | 120.71270 | 35977 ft | 430 kts | 191° |
| 2026-04-26 14:50 | 20.38669 | 120.70787 | 35972 ft | 430 kts | 191° |
| 2026-04-26 14:51 | 20.32698 | 120.70305 | 35972 ft | 430 kts | 191° |
| 2026-04-26 14:51 | 20.26724 | 120.69813 | 35974 ft | 430 kts | 191° |
| 2026-04-26 14:52 | 20.20756 | 120.69314 | 35973 ft | 430 kts | 191° |
| 2026-04-26 14:52 | 20.14793 | 120.68823 | 35970 ft | 430 kts | 191° |
| 2026-04-26 14:53 | 20.08823 | 120.68346 | 35972 ft | 430 kts | 191° |
| 2026-04-26 14:53 | 20.02856 | 120.67861 | 35970 ft | 429 kts | 191° |
| 2026-04-26 14:54 | 19.96904 | 120.67368 | 35969 ft | 429 kts | 191° |
| 2026-04-26 14:54 | 19.90956 | 120.66879 | 35973 ft | 429 kts | 191° |
| 2026-04-26 14:55 | 19.85012 | 120.66395 | 35972 ft | 428 kts | 191° |
| 2026-04-26 14:55 | 19.79074 | 120.65910 | 35975 ft | 428 kts | 191° |
| 2026-04-26 14:56 | 19.73145 | 120.65424 | 35978 ft | 427 kts | 191° |
| 2026-04-26 14:56 | 19.67219 | 120.64944 | 35978 ft | 427 kts | 191° |
| 2026-04-26 14:57 | 19.61304 | 120.64472 | 35975 ft | 426 kts | 191° |
| 2026-04-26 14:57 | 19.55394 | 120.63992 | 35973 ft | 426 kts | 192° |
| 2026-04-26 14:58 | 19.49481 | 120.63507 | 35965 ft | 425 kts | 191° |
| 2026-04-26 14:58 | 19.43581 | 120.63024 | 35966 ft | 425 kts | 191° |
| 2026-04-26 14:59 | 19.37721 | 120.62538 | 35962 ft | 425 kts | 191° |
| 2026-04-26 14:59 | 19.31823 | 120.62060 | 35963 ft | 424 kts | 191° |
| 2026-04-26 15:00 | 19.25932 | 120.61592 | 35975 ft | 424 kts | 191° |
| 2026-04-26 15:00 | 19.20049 | 120.61119 | 35953 ft | 424 kts | 191° |
| 2026-04-26 15:01 | 19.14170 | 120.60642 | 35961 ft | 424 kts | 191° |
| 2026-04-26 15:01 | 19.08293 | 120.60161 | 35962 ft | 423 kts | 191° |
| 2026-04-26 15:02 | 19.02416 | 120.59689 | 35948 ft | 423 kts | 191° |
| 2026-04-26 15:02 | 18.96540 | 120.59217 | 35949 ft | 423 kts | 191° |
| 2026-04-26 15:03 | 18.91656 | 120.58822 | 35941 ft | 423 kts | 191° |
| 2026-04-26 15:03 | 18.84833 | 120.58266 | 35939 ft | 423 kts | 191° |
| 2026-04-26 15:04 | 18.79914 | 120.57869 | 35948 ft | 423 kts | 191° |
| 2026-04-26 15:04 | 18.73086 | 120.57326 | 35932 ft | 423 kts | 191° |
| 2026-04-26 15:05 | 18.67215 | 120.56857 | 35929 ft | 423 kts | 191° |
| 2026-04-26 15:05 | 18.62292 | 120.56463 | 35931 ft | 423 kts | 191° |
| 2026-04-26 15:06 | 18.56452 | 120.55987 | 35925 ft | 423 kts | 191° |
| 2026-04-26 15:06 | 18.50571 | 120.55514 | 35926 ft | 424 kts | 190° |
| 2026-04-26 15:07 | 18.41753 | 120.54813 | 35925 ft | 424 kts | 190° |
| 2026-04-26 15:07 | 18.35876 | 120.54346 | 35927 ft | 424 kts | 190° |
| 2026-04-26 15:08 | 18.29996 | 120.53868 | 35929 ft | 424 kts | 190° |
| 2026-04-26 15:08 | 18.24119 | 120.53394 | 35925 ft | 424 kts | 190° |
| 2026-04-26 15:09 | 18.18235 | 120.52927 | 35926 ft | 424 kts | 190° |
| 2026-04-26 15:09 | 18.12370 | 120.52339 | 35930 ft | 422 kts | 192° |
| 2026-04-26 15:10 | 18.07523 | 120.51726 | 35930 ft | 422 kts | 193° |
| 2026-04-26 15:10 | 18.00705 | 120.50858 | 35929 ft | 422 kts | 192° |
| 2026-04-26 15:11 | 17.94868 | 120.50165 | 35926 ft | 422 kts | 192° |
| 2026-04-26 15:11 | 17.89023 | 120.49485 | 35922 ft | 422 kts | 192° |
| 2026-04-26 15:12 | 17.83182 | 120.48795 | 35917 ft | 422 kts | 192° |
| 2026-04-26 15:12 | 17.77340 | 120.48097 | 35915 ft | 422 kts | 192° |
| 2026-04-26 15:13 | 17.71498 | 120.47402 | 35910 ft | 422 kts | 192° |
| 2026-04-26 15:13 | 17.65657 | 120.46710 | 35914 ft | 423 kts | 192° |
| 2026-04-26 15:14 | 17.59812 | 120.46027 | 35912 ft | 423 kts | 192° |
| 2026-04-26 15:14 | 17.53966 | 120.45342 | 35917 ft | 423 kts | 192° |
| 2026-04-26 15:15 | 17.48160 | 120.44656 | 35915 ft | 423 kts | 192° |
| 2026-04-26 15:15 | 17.42312 | 120.43967 | 35909 ft | 423 kts | 192° |
| 2026-04-26 15:16 | 17.36464 | 120.43274 | 35913 ft | 423 kts | 192° |
| 2026-04-26 15:16 | 17.30619 | 120.42586 | 35913 ft | 423 kts | 192° |
| 2026-04-26 15:17 | 17.25754 | 120.42013 | 35912 ft | 423 kts | 192° |
| 2026-04-26 15:17 | 17.18913 | 120.41210 | 35909 ft | 423 kts | 191° |
| 2026-04-26 15:18 | 17.13053 | 120.40528 | 35909 ft | 424 kts | 191° |
| 2026-04-26 15:18 | 17.07193 | 120.39842 | 35912 ft | 424 kts | 191° |
| 2026-04-26 15:19 | 17.01321 | 120.39156 | 35915 ft | 424 kts | 191° |
| 2026-04-26 15:19 | 16.95451 | 120.38466 | 35914 ft | 425 kts | 191° |
| 2026-04-26 15:20 | 16.89576 | 120.37773 | 35919 ft | 425 kts | 191° |
| 2026-04-26 15:20 | 16.83694 | 120.37083 | 35912 ft | 425 kts | 191° |
| 2026-04-26 15:21 | 16.77806 | 120.36401 | 35923 ft | 426 kts | 191° |
| 2026-04-26 15:21 | 16.71959 | 120.35723 | 35919 ft | 426 kts | 190° |
| 2026-04-26 15:22 | 16.66031 | 120.35242 | 35925 ft | 428 kts | 188° |
| 2026-04-26 15:22 | 16.60084 | 120.34903 | 35927 ft | 428 kts | 188° |
| 2026-04-26 15:23 | 16.54129 | 120.34537 | 35921 ft | 428 kts | 188° |
| 2026-04-26 15:23 | 16.48183 | 120.34135 | 35921 ft | 428 kts | 188° |
| 2026-04-26 15:24 | 16.42231 | 120.33730 | 35924 ft | 429 kts | 188° |
| 2026-04-26 15:24 | 16.36284 | 120.33321 | 35924 ft | 429 kts | 188° |
| 2026-04-26 15:25 | 16.31337 | 120.32977 | 35924 ft | 429 kts | 188° |
| 2026-04-26 15:25 | 16.24372 | 120.32498 | 35925 ft | 429 kts | 188° |
| 2026-04-26 15:26 | 16.18411 | 120.32093 | 35926 ft | 429 kts | 188° |
| 2026-04-26 15:26 | 16.12446 | 120.31686 | 35924 ft | 429 kts | 188° |
| 2026-04-26 15:27 | 16.06520 | 120.31287 | 35924 ft | 430 kts | 188° |
| 2026-04-26 15:27 | 16.00548 | 120.30887 | 35926 ft | 430 kts | 188° |
| 2026-04-26 15:28 | 15.94577 | 120.30474 | 35928 ft | 430 kts | 188° |
| 2026-04-26 15:28 | 15.88597 | 120.30063 | 35931 ft | 430 kts | 188° |
| 2026-04-26 15:29 | 15.82618 | 120.29648 | 35930 ft | 431 kts | 188° |
| 2026-04-26 15:30 | 15.70652 | 120.28843 | 35939 ft | 431 kts | 188° |
| 2026-04-26 15:30 | 15.64666 | 120.28439 | 35942 ft | 431 kts | 187° |
| 2026-04-26 15:31 | 15.55672 | 120.27830 | 35946 ft | 432 kts | 187° |
| 2026-04-26 15:32 | 15.47692 | 120.27288 | 35943 ft | 432 kts | 187° |
| 2026-04-26 15:32 | 15.40671 | 120.26808 | 35946 ft | 432 kts | 187° |
| 2026-04-26 15:33 | 15.34671 | 120.26394 | 35947 ft | 432 kts | 187° |
| 2026-04-26 15:33 | 15.28663 | 120.25981 | 35951 ft | 433 kts | 187° |
| 2026-04-26 15:34 | 15.22653 | 120.25575 | 35947 ft | 433 kts | 187° |
| 2026-04-26 15:34 | 15.16642 | 120.25175 | 35946 ft | 433 kts | 187° |
| 2026-04-26 15:35 | 15.10660 | 120.24772 | 35945 ft | 433 kts | 187° |
| 2026-04-26 15:35 | 15.04640 | 120.24367 | 35930 ft | 433 kts | 187° |
| 2026-04-26 15:36 | 14.98613 | 120.23959 | 35930 ft | 434 kts | 187° |
| 2026-04-26 15:36 | 14.92589 | 120.23552 | 35925 ft | 434 kts | 187° |
| 2026-04-26 15:37 | 14.86560 | 120.23146 | 35926 ft | 434 kts | 187° |
| 2026-04-26 15:37 | 14.80527 | 120.22746 | 35927 ft | 434 kts | 187° |
| 2026-04-26 15:38 | 14.74501 | 120.22288 | 35926 ft | 434 kts | 189° |
| 2026-04-26 15:38 | 14.68521 | 120.21528 | 35929 ft | 433 kts | 191° |
| 2026-04-26 15:39 | 14.62552 | 120.20661 | 35930 ft | 433 kts | 191° |
| 2026-04-26 15:39 | 14.57588 | 120.19977 | 35926 ft | 433 kts | 191° |
| 2026-04-26 15:40 | 14.50584 | 120.19076 | 35921 ft | 434 kts | 190° |
| 2026-04-26 15:40 | 14.44593 | 120.18318 | 35912 ft | 434 kts | 190° |
| 2026-04-26 15:41 | 14.38595 | 120.17548 | 35910 ft | 434 kts | 190° |
| 2026-04-26 15:41 | 14.32594 | 120.16766 | 35908 ft | 434 kts | 190° |
| 2026-04-26 15:42 | 14.26598 | 120.15997 | 35901 ft | 435 kts | 190° |
| 2026-04-26 15:42 | 14.20596 | 120.15227 | 35905 ft | 435 kts | 190° |
| 2026-04-26 15:43 | 14.14589 | 120.14453 | 35900 ft | 435 kts | 190° |
| 2026-04-26 15:44 | 14.05576 | 120.13298 | 35898 ft | 435 kts | 190° |
| 2026-04-26 15:44 | 13.96600 | 120.12158 | 35898 ft | 435 kts | 190° |
| 2026-04-26 15:45 | 13.87576 | 120.10999 | 35896 ft | 435 kts | 190° |
| 2026-04-26 15:46 | 13.78626 | 120.09500 | 35898 ft | 434 kts | 194° |
| 2026-04-26 15:46 | 13.74675 | 120.08634 | 35899 ft | 433 kts | 195° |
| 2026-04-26 15:47 | 13.63857 | 120.06331 | 35897 ft | 434 kts | 194° |
| 2026-04-26 15:48 | 13.57930 | 120.05141 | 35895 ft | 434 kts | 193° |
| 2026-04-26 15:48 | 13.52030 | 120.03963 | 35894 ft | 434 kts | 193° |
| 2026-04-26 15:49 | 13.46108 | 120.02778 | 35893 ft | 434 kts | 193° |
| 2026-04-26 15:49 | 13.41854 | 120.01920 | 35893 ft | 433 kts | 193° |
| 2026-04-26 15:50 | 13.36935 | 120.00918 | 35892 ft | 433 kts | 193° |
| 2026-04-26 15:50 | 13.30021 | 119.99520 | 35891 ft | 433 kts | 193° |
| 2026-04-26 15:51 | 13.25101 | 119.98529 | 35892 ft | 433 kts | 193° |
| 2026-04-26 15:51 | 13.19183 | 119.97336 | 35885 ft | 433 kts | 193° |
| 2026-04-26 15:52 | 13.13267 | 119.96140 | 35886 ft | 433 kts | 193° |
| 2026-04-26 15:52 | 13.07353 | 119.94942 | 35886 ft | 433 kts | 193° |
| 2026-04-26 15:53 | 13.01439 | 119.93753 | 35887 ft | 433 kts | 193° |
| 2026-04-26 15:53 | 12.95520 | 119.92561 | 35890 ft | 433 kts | 193° |
| 2026-04-26 15:54 | 12.89599 | 119.91372 | 35889 ft | 433 kts | 193° |
| 2026-04-26 15:54 | 12.83686 | 119.90182 | 35890 ft | 433 kts | 193° |
| 2026-04-26 15:55 | 12.77770 | 119.88997 | 35892 ft | 433 kts | 193° |
| 2026-04-26 15:55 | 12.71856 | 119.87815 | 35894 ft | 433 kts | 193° |
| 2026-04-26 15:56 | 12.65947 | 119.86627 | 35894 ft | 433 kts | 193° |
| 2026-04-26 15:56 | 12.60033 | 119.85441 | 35890 ft | 433 kts | 193° |
| 2026-04-26 15:57 | 12.54126 | 119.84256 | 35894 ft | 432 kts | 193° |
| 2026-04-26 15:57 | 12.48223 | 119.83072 | 35895 ft | 432 kts | 193° |
| 2026-04-26 15:58 | 12.42318 | 119.81894 | 35892 ft | 432 kts | 193° |
| 2026-04-26 15:58 | 12.36415 | 119.80712 | 35896 ft | 432 kts | 193° |
| 2026-04-26 15:59 | 12.30511 | 119.79523 | 35897 ft | 432 kts | 193° |
| 2026-04-26 15:59 | 12.24612 | 119.78342 | 35895 ft | 432 kts | 193° |
| 2026-04-26 16:00 | 12.18719 | 119.77167 | 35890 ft | 432 kts | 193° |
| 2026-04-26 16:00 | 12.12814 | 119.75990 | 35893 ft | 432 kts | 193° |
| 2026-04-26 16:01 | 12.06955 | 119.74823 | 35891 ft | 432 kts | 193° |
| 2026-04-26 16:01 | 12.01019 | 119.73636 | 35893 ft | 432 kts | 193° |
| 2026-04-26 16:02 | 11.95159 | 119.72479 | 35893 ft | 432 kts | 193° |
| 2026-04-26 16:02 | 11.89266 | 119.71308 | 35888 ft | 431 kts | 193° |
| 2026-04-26 16:03 | 11.83371 | 119.70136 | 35889 ft | 431 kts | 193° |
| 2026-04-26 16:03 | 11.77481 | 119.68960 | 35893 ft | 431 kts | 193° |
| 2026-04-26 16:04 | 11.71589 | 119.67775 | 35890 ft | 431 kts | 195° |
| 2026-04-26 16:04 | 11.66029 | 119.65616 | 35888 ft | 428 kts | 206° |
| 2026-04-26 16:05 | 11.60608 | 119.63088 | 35885 ft | 428 kts | 206° |
| 2026-04-26 16:05 | 11.55184 | 119.60570 | 35882 ft | 428 kts | 206° |
| 2026-04-26 16:06 | 11.49758 | 119.58056 | 35884 ft | 428 kts | 206° |
| 2026-04-26 16:06 | 11.44328 | 119.55536 | 35883 ft | 428 kts | 205° |
| 2026-04-26 16:07 | 11.38902 | 119.53023 | 35882 ft | 428 kts | 205° |
| 2026-04-26 16:07 | 11.33508 | 119.50524 | 35882 ft | 429 kts | 205° |
| 2026-04-26 16:08 | 11.28082 | 119.48008 | 35881 ft | 429 kts | 205° |
| 2026-04-26 16:08 | 11.22651 | 119.45497 | 35881 ft | 429 kts | 205° |
| 2026-04-26 16:09 | 11.17216 | 119.42985 | 35881 ft | 429 kts | 205° |
| 2026-04-26 16:09 | 11.11788 | 119.40473 | 35877 ft | 429 kts | 205° |
| 2026-04-26 16:10 | 11.06360 | 119.37957 | 35877 ft | 429 kts | 205° |
| 2026-04-26 16:10 | 11.00930 | 119.35450 | 35882 ft | 429 kts | 205° |
| 2026-04-26 16:11 | 10.95500 | 119.32940 | 35880 ft | 429 kts | 205° |
| 2026-04-26 16:11 | 10.90067 | 119.30431 | 35880 ft | 429 kts | 205° |
| 2026-04-26 16:12 | 10.84635 | 119.27916 | 35880 ft | 429 kts | 205° |
| 2026-04-26 16:12 | 10.76485 | 119.24145 | 35876 ft | 429 kts | 205° |
| 2026-04-26 16:13 | 10.71046 | 119.21641 | 35880 ft | 429 kts | 205° |
| 2026-04-26 16:13 | 10.65602 | 119.19139 | 35877 ft | 429 kts | 205° |
| 2026-04-26 16:14 | 10.60163 | 119.16628 | 35877 ft | 429 kts | 205° |
| 2026-04-26 16:15 | 10.51999 | 119.12866 | 35880 ft | 429 kts | 205° |
| 2026-04-26 16:15 | 10.46589 | 119.10376 | 35883 ft | 430 kts | 205° |
| 2026-04-26 16:16 | 10.38421 | 119.06619 | 35886 ft | 430 kts | 205° |
| 2026-04-26 16:16 | 10.32973 | 119.04111 | 35888 ft | 430 kts | 205° |
| 2026-04-26 16:17 | 10.27524 | 119.01603 | 35885 ft | 430 kts | 205° |
| 2026-04-26 16:17 | 10.22071 | 118.99095 | 35883 ft | 430 kts | 205° |
| 2026-04-26 16:18 | 10.13888 | 118.95342 | 35884 ft | 430 kts | 205° |
| 2026-04-26 16:19 | 10.05704 | 118.91586 | 35883 ft | 430 kts | 205° |
| 2026-04-26 16:20 | 9.97513 | 118.87829 | 35897 ft | 431 kts | 204° |
| 2026-04-26 16:20 | 9.89314 | 118.84065 | 35906 ft | 431 kts | 204° |
| 2026-04-26 16:21 | 9.83850 | 118.81560 | 35909 ft | 431 kts | 204° |
| 2026-04-26 16:21 | 9.78386 | 118.79058 | 35910 ft | 431 kts | 204° |
| 2026-04-26 16:22 | 9.73021 | 118.76342 | 35908 ft | 431 kts | 214° |
| 2026-04-26 16:22 | 9.68142 | 118.72802 | 35909 ft | 431 kts | 216° |
| 2026-04-26 16:23 | 9.63272 | 118.69246 | 35911 ft | 432 kts | 215° |
| 2026-04-26 16:23 | 9.58392 | 118.65695 | 35904 ft | 432 kts | 215° |
| 2026-04-26 16:24 | 9.53511 | 118.62147 | 35896 ft | 432 kts | 215° |
| 2026-04-26 16:24 | 9.48627 | 118.58600 | 35890 ft | 432 kts | 215° |
| 2026-04-26 16:25 | 9.43745 | 118.55049 | 35881 ft | 432 kts | 215° |
| 2026-04-26 16:25 | 9.38857 | 118.51498 | 35878 ft | 432 kts | 215° |
| 2026-04-26 16:26 | 9.34798 | 118.48541 | 35877 ft | 432 kts | 215° |
| 2026-04-26 16:26 | 9.29111 | 118.44413 | 35880 ft | 433 kts | 215° |
| 2026-04-26 16:27 | 9.24188 | 118.40840 | 35881 ft | 433 kts | 215° |
| 2026-04-26 16:27 | 9.19298 | 118.37287 | 35878 ft | 433 kts | 215° |
| 2026-04-26 16:28 | 9.14433 | 118.33763 | 35876 ft | 433 kts | 215° |
| 2026-04-26 16:28 | 9.09539 | 118.30219 | 35875 ft | 433 kts | 215° |
| 2026-04-26 16:29 | 9.04639 | 118.26672 | 35870 ft | 433 kts | 215° |
| 2026-04-26 16:29 | 8.99730 | 118.23136 | 35871 ft | 433 kts | 215° |
| 2026-04-26 16:30 | 8.94817 | 118.19603 | 35872 ft | 433 kts | 215° |
| 2026-04-26 16:30 | 8.89901 | 118.16065 | 35870 ft | 433 kts | 215° |
| 2026-04-26 16:31 | 8.85822 | 118.13121 | 35869 ft | 433 kts | 215° |
| 2026-04-26 16:31 | 8.80081 | 118.08982 | 35874 ft | 433 kts | 215° |
| 2026-04-26 16:32 | 8.75994 | 118.06041 | 35870 ft | 433 kts | 215° |
| 2026-04-26 16:32 | 8.71081 | 118.02511 | 35869 ft | 434 kts | 215° |
| 2026-04-26 16:33 | 8.66165 | 117.98976 | 35867 ft | 434 kts | 214° |
| 2026-04-26 16:33 | 8.61246 | 117.95446 | 35868 ft | 434 kts | 214° |
| 2026-04-26 16:34 | 8.56319 | 117.91913 | 35869 ft | 434 kts | 214° |
| 2026-04-26 16:34 | 8.51401 | 117.88377 | 35868 ft | 434 kts | 214° |
| 2026-04-26 16:35 | 8.46483 | 117.84841 | 35869 ft | 434 kts | 214° |
| 2026-04-26 16:35 | 8.41556 | 117.81302 | 35863 ft | 434 kts | 214° |
| 2026-04-26 16:36 | 8.36631 | 117.77768 | 35861 ft | 434 kts | 214° |
| 2026-04-26 16:36 | 8.31703 | 117.74234 | 35865 ft | 434 kts | 214° |
| 2026-04-26 16:37 | 8.26777 | 117.70705 | 35863 ft | 434 kts | 214° |
| 2026-04-26 16:37 | 8.21849 | 117.67175 | 35863 ft | 434 kts | 214° |
| 2026-04-26 16:38 | 8.16922 | 117.63643 | 35863 ft | 434 kts | 214° |
| 2026-04-26 16:38 | 8.12028 | 117.60133 | 35864 ft | 435 kts | 214° |
| 2026-04-26 16:39 | 8.07099 | 117.56601 | 35863 ft | 435 kts | 214° |
| 2026-04-26 16:39 | 8.02172 | 117.53065 | 35864 ft | 435 kts | 214° |
| 2026-04-26 16:40 | 7.97237 | 117.49533 | 35862 ft | 435 kts | 214° |
| 2026-04-26 16:40 | 7.92301 | 117.46008 | 35859 ft | 435 kts | 214° |
| 2026-04-26 16:41 | 7.87364 | 117.42479 | 35860 ft | 435 kts | 214° |
| 2026-04-26 16:41 | 7.82428 | 117.38942 | 35860 ft | 435 kts | 214° |
| 2026-04-26 16:42 | 7.77489 | 117.35411 | 35860 ft | 435 kts | 214° |
| 2026-04-26 16:42 | 7.72552 | 117.31876 | 35861 ft | 435 kts | 214° |
| 2026-04-26 16:43 | 7.67617 | 117.28346 | 35863 ft | 435 kts | 214° |
| 2026-04-26 16:43 | 7.62651 | 117.24830 | 35863 ft | 435 kts | 214° |
| 2026-04-26 16:44 | 7.57675 | 117.21328 | 35862 ft | 435 kts | 214° |
| 2026-04-26 16:44 | 7.52737 | 117.17851 | 35863 ft | 435 kts | 214° |
| 2026-04-26 16:45 | 7.47769 | 117.14343 | 35864 ft | 436 kts | 214° |
| 2026-04-26 16:45 | 7.42808 | 117.10838 | 35863 ft | 436 kts | 214° |
| 2026-04-26 16:46 | 7.37843 | 117.07337 | 35863 ft | 436 kts | 214° |
| 2026-04-26 16:46 | 7.32872 | 117.03833 | 35855 ft | 436 kts | 213° |
| 2026-04-26 16:47 | 7.27876 | 117.00301 | 35847 ft | 440 kts | 218° |
| 2026-04-26 16:47 | 7.25543 | 116.98307 | 35707 ft | 440 kts | 220° |
| 2026-04-26 16:47 | 7.23249 | 116.96286 | 35328 ft | 436 kts | 220° |
| 2026-04-26 16:48 | 7.20981 | 116.94259 | 34805 ft | 434 kts | 220° |
| 2026-04-26 16:48 | 7.18729 | 116.92239 | 34280 ft | 433 kts | 220° |
| 2026-04-26 16:48 | 7.16485 | 116.90226 | 33760 ft | 432 kts | 220° |
| 2026-04-26 16:48 | 7.14242 | 116.88220 | 33193 ft | 430 kts | 220° |
| 2026-04-26 16:49 | 7.12008 | 116.86231 | 32697 ft | 427 kts | 220° |
| 2026-04-26 16:49 | 7.09791 | 116.84259 | 32182 ft | 425 kts | 220° |
| 2026-04-26 16:49 | 7.07578 | 116.82294 | 31679 ft | 423 kts | 220° |
| 2026-04-26 16:49 | 7.05381 | 116.80346 | 31179 ft | 420 kts | 220° |
| 2026-04-26 16:50 | 7.03188 | 116.78401 | 30684 ft | 418 kts | 220° |
| 2026-04-26 16:50 | 7.01011 | 116.76468 | 30201 ft | 416 kts | 220° |
| 2026-04-26 16:50 | 6.98847 | 116.74543 | 29687 ft | 414 kts | 220° |
| 2026-04-26 16:50 | 6.96695 | 116.72626 | 29214 ft | 410 kts | 220° |
| 2026-04-26 16:51 | 6.94570 | 116.70734 | 28759 ft | 406 kts | 220° |
| 2026-04-26 16:51 | 6.92462 | 116.68860 | 28314 ft | 402 kts | 220° |
| 2026-04-26 16:51 | 6.90399 | 116.67031 | 27880 ft | 398 kts | 220° |
| 2026-04-26 16:51 | 6.88329 | 116.65194 | 27429 ft | 395 kts | 220° |
| 2026-04-26 16:52 | 6.86276 | 116.63374 | 26991 ft | 392 kts | 220° |
| 2026-04-26 16:52 | 6.84895 | 116.62151 | 26688 ft | 390 kts | 220° |
| 2026-04-26 16:52 | 6.82204 | 116.59769 | 26077 ft | 388 kts | 220° |
| 2026-04-26 16:52 | 6.80184 | 116.57980 | 25617 ft | 386 kts | 220° |
| 2026-04-26 16:53 | 6.78170 | 116.56193 | 25139 ft | 386 kts | 219° |
| 2026-04-26 16:53 | 6.76159 | 116.54407 | 24665 ft | 385 kts | 220° |
| 2026-04-26 16:53 | 6.74150 | 116.52625 | 24170 ft | 385 kts | 219° |
| 2026-04-26 16:53 | 6.72136 | 116.50840 | 23677 ft | 385 kts | 220° |
| 2026-04-26 16:54 | 6.70124 | 116.49054 | 23132 ft | 386 kts | 220° |
| 2026-04-26 16:54 | 6.68117 | 116.47269 | 22624 ft | 384 kts | 220° |
| 2026-04-26 16:54 | 6.66119 | 116.45496 | 22150 ft | 382 kts | 220° |
| 2026-04-26 16:54 | 6.64127 | 116.43732 | 21664 ft | 381 kts | 220° |
| 2026-04-26 16:55 | 6.62145 | 116.41978 | 21184 ft | 379 kts | 220° |
| 2026-04-26 16:55 | 6.60165 | 116.40225 | 20718 ft | 378 kts | 220° |
| 2026-04-26 16:55 | 6.58194 | 116.38481 | 20249 ft | 377 kts | 220° |
| 2026-04-26 16:55 | 6.56228 | 116.36740 | 19784 ft | 376 kts | 220° |
| 2026-04-26 16:56 | 6.52307 | 116.33268 | 18860 ft | 375 kts | 220° |
| 2026-04-26 16:56 | 6.50355 | 116.31540 | 18471 ft | 372 kts | 220° |
| 2026-04-26 16:56 | 6.48410 | 116.29819 | 18075 ft | 370 kts | 220° |
| 2026-04-26 16:57 | 6.46490 | 116.28119 | 17644 ft | 367 kts | 220° |
| 2026-04-26 16:57 | 6.44578 | 116.26425 | 17176 ft | 366 kts | 220° |
| 2026-04-26 16:57 | 6.40778 | 116.23065 | 16306 ft | 361 kts | 220° |
| 2026-04-26 16:58 | 6.38894 | 116.21399 | 15899 ft | 359 kts | 220° |
| 2026-04-26 16:58 | 6.37654 | 116.20303 | 15653 ft | 358 kts | 220° |
| 2026-04-26 16:58 | 6.33316 | 116.16463 | 14731 ft | 352 kts | 220° |
| 2026-04-26 16:59 | 6.31490 | 116.14849 | 14099 ft | 348 kts | 220° |
| 2026-04-26 16:59 | 6.28021 | 116.11784 | 13372 ft | 323 kts | 220° |
| 2026-04-26 17:00 | 6.24683 | 116.08835 | 12157 ft | 316 kts | 220° |
| 2026-04-26 17:00 | 6.21385 | 116.05919 | 11493 ft | 315 kts | 220° |
| 2026-04-26 17:00 | 6.19756 | 116.04476 | 11211 ft | 311 kts | 220° |
| 2026-04-26 17:01 | 6.18132 | 116.03051 | 10868 ft | 310 kts | 217° |
| 2026-04-26 17:01 | 6.16337 | 116.01944 | 10603 ft | 304 kts | 202° |
| 2026-04-26 17:01 | 6.14395 | 116.01130 | 10225 ft | 303 kts | 200° |
| 2026-04-26 17:01 | 6.12445 | 116.00317 | 9855 ft | 304 kts | 200° |
| 2026-04-26 17:02 | 6.10490 | 115.99495 | 9421 ft | 305 kts | 201° |
| 2026-04-26 17:02 | 6.08533 | 115.98671 | 9021 ft | 304 kts | 201° |
| 2026-04-26 17:02 | 6.06577 | 115.97851 | 8590 ft | 304 kts | 201° |
| 2026-04-26 17:02 | 6.04629 | 115.97037 | 8161 ft | 304 kts | 201° |
| 2026-04-26 17:03 | 6.02677 | 115.96218 | 7733 ft | 303 kts | 201° |
| 2026-04-26 17:03 | 6.00732 | 115.95396 | 7304 ft | 303 kts | 201° |
| 2026-04-26 17:03 | 5.98787 | 115.94570 | 6853 ft | 303 kts | 201° |
| 2026-04-26 17:03 | 5.96854 | 115.93746 | 6400 ft | 298 kts | 201° |
| 2026-04-26 17:04 | 5.94982 | 115.92947 | 5943 ft | 287 kts | 201° |
| 2026-04-26 17:04 | 5.93181 | 115.92184 | 5508 ft | 276 kts | 201° |
| 2026-04-26 17:04 | 5.91435 | 115.91488 | 5094 ft | 264 kts | 194° |
| 2026-04-26 17:04 | 5.89663 | 115.91249 | 4690 ft | 252 kts | 176° |
| 2026-04-26 17:05 | 5.87977 | 115.91541 | 4299 ft | 242 kts | 160° |
| 2026-04-26 17:05 | 5.86495 | 115.92270 | 3918 ft | 234 kts | 144° |
| 2026-04-26 17:05 | 5.85302 | 115.93341 | 3542 ft | 228 kts | 129° |
| 2026-04-26 17:05 | 5.84477 | 115.94644 | 3178 ft | 214 kts | 114° |
| 2026-04-26 17:06 | 5.84043 | 115.96031 | 2844 ft | 205 kts | 100° |
| 2026-04-26 17:06 | 5.83953 | 115.97434 | 2524 ft | 197 kts | 87° |
| 2026-04-26 17:06 | 5.84175 | 115.98748 | 2205 ft | 185 kts | 74° |
| 2026-04-26 17:06 | 5.84647 | 115.99898 | 1885 ft | 176 kts | 62° |
| 2026-04-26 17:07 | 5.85321 | 116.00893 | 1607 ft | 169 kts | 50° |
| 2026-04-26 17:07 | 5.86154 | 116.01702 | 1322 ft | 164 kts | 38° |
| 2026-04-26 17:07 | 5.87100 | 116.02317 | 1037 ft | 160 kts | 27° |
| 2026-04-26 17:07 | 5.88104 | 116.02759 | 775 ft | 154 kts | 23° |
| 2026-04-26 17:08 | 5.89078 | 116.03166 | 591 ft | 150 kts | 24° |
| 2026-04-26 17:08 | 5.90038 | 116.03567 | 407 ft | 149 kts | 23° |
| 2026-04-26 17:08 | 5.90994 | 116.03963 | 238 ft | 149 kts | 24° |
| 2026-04-26 17:08 | 5.91948 | 116.04365 | 65 ft | 149 kts | 24° |
| 2026-04-26 17:09 | 5.92852 | 116.04751 | 29 ft | 128 kts | 20° |
| 2026-04-26 17:09 | 5.93337 | 116.04953 | 29 ft | 95 kts | 22° |
| 2026-04-26 17:09 | 5.93853 | 116.05175 | 29 ft | 33 kts | 30° |
| 2026-04-26 17:09 | 5.93988 | 116.05267 | 29 ft | 20 kts | 57° |
| 2026-04-26 17:10 | 5.94048 | 116.05357 | 29 ft | 13 kts | 56° |
| 2026-04-26 17:10 | 5.94063 | 116.05422 | 29 ft | 7 kts | 144° |
| 2026-04-26 17:10 | 5.94022 | 116.05429 | 29 ft | 5 kts | 191° |
| 2026-04-26 17:10 | 5.93978 | 116.05411 | 29 ft | 10 kts | 205° |
| 2026-04-26 17:11 | 5.93889 | 116.05373 | 29 ft | 16 kts | 202° |
| 2026-04-26 17:11 | 5.93781 | 116.05327 | 29 ft | 18 kts | 202° |
| 2026-04-26 17:11 | 5.93662 | 116.05279 | 29 ft | 17 kts | 202° |
| 2026-04-26 17:11 | 5.93552 | 116.05237 | 29 ft | 17 kts | 198° |
| 2026-04-26 17:12 | 5.93316 | 116.05133 | 29 ft | 18 kts | 202° |
| 2026-04-26 17:12 | 5.93208 | 116.05087 | 29 ft | 18 kts | 204° |
| 2026-04-26 17:13 | 5.92959 | 116.04981 | 29 ft | 21 kts | 203° |
| 2026-04-26 17:13 | 5.92821 | 116.04924 | 29 ft | 22 kts | 202° |
| 2026-04-26 17:13 | 5.92603 | 116.04830 | 29 ft | 17 kts | 202° |
| 2026-04-26 17:14 | 5.92500 | 116.04786 | 29 ft | 14 kts | 203° |
| 2026-04-26 17:14 | 5.92397 | 116.04818 | 29 ft | 7 kts | 118° |
| 2026-04-26 17:14 | 5.92358 | 116.04855 | 29 ft | 8 kts | 131° |
| 2026-04-26 17:15 | 5.92383 | 116.04934 | 29 ft | 4 kts | 64° |
| 2026-04-26 17:15 | 5.92392 | 116.04951 | 29 ft | 2 kts | 63° |
| 2026-04-26 17:15 | 5.92395 | 116.04957 | 29 ft | 0 kts | 63° |
| 2026-04-26 17:16 | 5.92395 | 116.04958 | 29 ft | 1 kts | 63° |
| 2026-04-26 17:16 | 5.92396 | 116.04959 | 29 ft | 0 kts | 63° |